sensor_id;sensor_type;location;lat;lon;timestamp;P1;durP1;ratioP1;P2;durP2;ratioP2
75785;SDS011;64402;44.708;37.644;2023-02-15T00:01:55;13.40;;;5.20;;
75785;SDS011;64402;44.708;37.644;2023-02-15T00:04:22;8.52;;;4.47;;
75785;SDS011;64402;44.708;37.644;2023-02-15T00:06:50;14.73;;;7.15;;
75785;SDS011;64402;44.708;37.644;2023-02-15T00:09:16;12.00;;;5.45;;
75785;SDS011;64402;44.708;37.644;2023-02-15T00:11:42;11.85;;;4.43;;
75785;SDS011;64402;44.708;37.644;2023-02-15T00:14:19;11.23;;;4.50;;
75785;SDS011;64402;44.708;37.644;2023-02-15T00:16:47;9.90;;;4.43;;
75785;SDS011;64402;44.708;37.644;2023-02-15T00:19:15;10.32;;;4.55;;
75785;SDS011;64402;44.708;37.644;2023-02-15T00:21:43;7.80;;;4.18;;
75785;SDS011;64402;44.708;37.644;2023-02-15T00:24:10;9.30;;;4.90;;
75785;SDS011;64402;44.708;37.644;2023-02-15T00:26:40;14.68;;;5.35;;
75785;SDS011;64402;44.708;37.644;2023-02-15T00:29:17;13.73;;;5.53;;
75785;SDS011;64402;44.708;37.644;2023-02-15T00:31:45;9.88;;;4.82;;
75785;SDS011;64402;44.708;37.644;2023-02-15T00:34:15;14.80;;;6.80;;
75785;SDS011;64402;44.708;37.644;2023-02-15T00:36:44;14.25;;;5.95;;
75785;SDS011;64402;44.708;37.644;2023-02-15T00:39:11;14.00;;;7.07;;
75785;SDS011;64402;44.708;37.644;2023-02-15T00:41:38;12.75;;;6.18;;
75785;SDS011;64402;44.708;37.644;2023-02-15T00:44:04;10.82;;;5.35;;
75785;SDS011;64402;44.708;37.644;2023-02-15T00:46:32;9.80;;;4.68;;
75785;SDS011;64402;44.708;37.644;2023-02-15T00:48:58;8.90;;;4.78;;
75785;SDS011;64402;44.708;37.644;2023-02-15T00:51:25;11.50;;;4.70;;
75785;SDS011;64402;44.708;37.644;2023-02-15T00:53:54;9.45;;;4.55;;
75785;SDS011;64402;44.708;37.644;2023-02-15T00:56:21;10.10;;;4.13;;
75785;SDS011;64402;44.708;37.644;2023-02-15T00:58:47;10.60;;;5.10;;
75785;SDS011;64402;44.708;37.644;2023-02-15T01:01:14;10.13;;;4.18;;
75785;SDS011;64402;44.708;37.644;2023-02-15T01:03:45;9.60;;;4.28;;
75785;SDS011;64402;44.708;37.644;2023-02-15T01:06:12;9.55;;;4.32;;
75785;SDS011;64402;44.708;37.644;2023-02-15T01:08:43;11.75;;;4.28;;
75785;SDS011;64402;44.708;37.644;2023-02-15T01:11:11;10.85;;;4.35;;
75785;SDS011;64402;44.708;37.644;2023-02-15T01:13:52;12.48;;;4.57;;
75785;SDS011;64402;44.708;37.644;2023-02-15T01:16:21;12.20;;;4.32;;
75785;SDS011;64402;44.708;37.644;2023-02-15T01:18:48;13.45;;;4.10;;
75785;SDS011;64402;44.708;37.644;2023-02-15T01:21:17;10.45;;;4.28;;
75785;SDS011;64402;44.708;37.644;2023-02-15T01:23:45;8.10;;;4.13;;
75785;SDS011;64402;44.708;37.644;2023-02-15T01:26:12;9.98;;;4.38;;
75785;SDS011;64402;44.708;37.644;2023-02-15T01:28:39;10.95;;;3.88;;
75785;SDS011;64402;44.708;37.644;2023-02-15T01:31:13;9.68;;;3.90;;
75785;SDS011;64402;44.708;37.644;2023-02-15T01:33:44;8.90;;;4.18;;
75785;SDS011;64402;44.708;37.644;2023-02-15T01:36:10;9.68;;;4.15;;
75785;SDS011;64402;44.708;37.644;2023-02-15T01:38:37;10.23;;;4.80;;
75785;SDS011;64402;44.708;37.644;2023-02-15T01:41:03;11.45;;;4.88;;
75785;SDS011;64402;44.708;37.644;2023-02-15T01:43:51;9.40;;;4.20;;
75785;SDS011;64402;44.708;37.644;2023-02-15T01:46:53;9.90;;;4.22;;
75785;SDS011;64402;44.708;37.644;2023-02-15T01:49:17;15.13;;;4.53;;
75785;SDS011;64402;44.708;37.644;2023-02-15T01:51:47;11.98;;;4.70;;
75785;SDS011;64402;44.708;37.644;2023-02-15T01:56:50;13.13;;;4.70;;
75785;SDS011;64402;44.708;37.644;2023-02-15T01:59:19;10.27;;;4.55;;
75785;SDS011;64402;44.708;37.644;2023-02-15T02:01:52;13.15;;;4.60;;
75785;SDS011;64402;44.708;37.644;2023-02-15T02:04:24;11.13;;;4.35;;
75785;SDS011;64402;44.708;37.644;2023-02-15T02:06:59;9.18;;;4.28;;
75785;SDS011;64402;44.708;37.644;2023-02-15T02:09:26;12.48;;;4.82;;
75785;SDS011;64402;44.708;37.644;2023-02-15T02:11:52;12.40;;;4.15;;
75785;SDS011;64402;44.708;37.644;2023-02-15T02:14:20;8.52;;;4.15;;
75785;SDS011;64402;44.708;37.644;2023-02-15T02:17:06;12.07;;;3.90;;
75785;SDS011;64402;44.708;37.644;2023-02-15T02:28:18;15.48;;;7.20;;
75785;SDS011;64402;44.708;37.644;2023-02-15T02:33:49;10.65;;;5.05;;
75785;SDS011;64402;44.708;37.644;2023-02-15T02:44:47;10.45;;;3.90;;
75785;SDS011;64402;44.708;37.644;2023-02-15T02:47:44;9.15;;;3.70;;
75785;SDS011;64402;44.708;37.644;2023-02-15T02:50:18;8.85;;;3.92;;
75785;SDS011;64402;44.708;37.644;2023-02-15T02:52:51;9.13;;;3.67;;
75785;SDS011;64402;44.708;37.644;2023-02-15T02:58:03;7.85;;;3.65;;
75785;SDS011;64402;44.708;37.644;2023-02-15T03:01:00;11.40;;;3.90;;
75785;SDS011;64402;44.708;37.644;2023-02-15T03:03:36;10.20;;;4.10;;
75785;SDS011;64402;44.708;37.644;2023-02-15T03:06:13;10.30;;;4.38;;
75785;SDS011;64402;44.708;37.644;2023-02-15T03:08:54;10.02;;;4.15;;
75785;SDS011;64402;44.708;37.644;2023-02-15T03:11:41;11.23;;;4.22;;
75785;SDS011;64402;44.708;37.644;2023-02-15T03:14:09;10.60;;;4.70;;
75785;SDS011;64402;44.708;37.644;2023-02-15T03:16:37;9.35;;;3.92;;
75785;SDS011;64402;44.708;37.644;2023-02-15T03:19:15;11.02;;;4.22;;
75785;SDS011;64402;44.708;37.644;2023-02-15T03:21:46;11.00;;;4.05;;
75785;SDS011;64402;44.708;37.644;2023-02-15T03:24:33;11.25;;;4.10;;
75785;SDS011;64402;44.708;37.644;2023-02-15T03:27:10;8.73;;;3.97;;
75785;SDS011;64402;44.708;37.644;2023-02-15T03:29:43;8.68;;;3.95;;
75785;SDS011;64402;44.708;37.644;2023-02-15T03:32:17;9.70;;;3.20;;
75785;SDS011;64402;44.708;37.644;2023-02-15T03:34:45;11.73;;;3.88;;
75785;SDS011;64402;44.708;37.644;2023-02-15T03:37:24;7.82;;;3.17;;
75785;SDS011;64402;44.708;37.644;2023-02-15T03:42:53;7.60;;;3.45;;
75785;SDS011;64402;44.708;37.644;2023-02-15T03:45:31;7.25;;;3.33;;
75785;SDS011;64402;44.708;37.644;2023-02-15T03:47:59;7.93;;;3.33;;
75785;SDS011;64402;44.708;37.644;2023-02-15T03:50:28;7.00;;;3.22;;
75785;SDS011;64402;44.708;37.644;2023-02-15T03:53:16;6.68;;;3.03;;
75785;SDS011;64402;44.708;37.644;2023-02-15T03:55:47;7.13;;;3.28;;
75785;SDS011;64402;44.708;37.644;2023-02-15T03:58:14;8.95;;;2.88;;
75785;SDS011;64402;44.708;37.644;2023-02-15T04:00:59;6.40;;;2.40;;
75785;SDS011;64402;44.708;37.644;2023-02-15T04:03:56;7.90;;;3.13;;
75785;SDS011;64402;44.708;37.644;2023-02-15T04:06:26;6.55;;;3.05;;
75785;SDS011;64402;44.708;37.644;2023-02-15T04:08:52;7.43;;;2.92;;
75785;SDS011;64402;44.708;37.644;2023-02-15T04:11:37;6.60;;;3.08;;
75785;SDS011;64402;44.708;37.644;2023-02-15T04:14:04;10.40;;;3.97;;
75785;SDS011;64402;44.708;37.644;2023-02-15T04:16:50;8.82;;;3.97;;
75785;SDS011;64402;44.708;37.644;2023-02-15T04:19:16;10.25;;;4.18;;
75785;SDS011;64402;44.708;37.644;2023-02-15T04:22:01;7.88;;;3.70;;
75785;SDS011;64402;44.708;37.644;2023-02-15T04:24:46;9.13;;;3.45;;
75785;SDS011;64402;44.708;37.644;2023-02-15T04:27:31;10.15;;;4.15;;
75785;SDS011;64402;44.708;37.644;2023-02-15T04:29:57;11.98;;;3.65;;
75785;SDS011;64402;44.708;37.644;2023-02-15T04:32:23;7.22;;;3.25;;
75785;SDS011;64402;44.708;37.644;2023-02-15T04:34:49;6.93;;;2.80;;
75785;SDS011;64402;44.708;37.644;2023-02-15T04:37:16;5.25;;;2.00;;
75785;SDS011;64402;44.708;37.644;2023-02-15T04:39:42;5.65;;;2.00;;
75785;SDS011;64402;44.708;37.644;2023-02-15T04:42:08;5.47;;;1.98;;
75785;SDS011;64402;44.708;37.644;2023-02-15T04:44:35;4.28;;;1.60;;
75785;SDS011;64402;44.708;37.644;2023-02-15T04:47:01;5.50;;;1.80;;
75785;SDS011;64402;44.708;37.644;2023-02-15T04:49:30;5.40;;;1.83;;
75785;SDS011;64402;44.708;37.644;2023-02-15T04:51:56;5.63;;;1.77;;
75785;SDS011;64402;44.708;37.644;2023-02-15T04:54:22;4.80;;;1.85;;
75785;SDS011;64402;44.708;37.644;2023-02-15T04:56:49;5.32;;;2.30;;
75785;SDS011;64402;44.708;37.644;2023-02-15T04:59:15;7.13;;;2.65;;
75785;SDS011;64402;44.708;37.644;2023-02-15T05:01:41;7.43;;;2.90;;
75785;SDS011;64402;44.708;37.644;2023-02-15T05:04:08;6.45;;;2.53;;
75785;SDS011;64402;44.708;37.644;2023-02-15T05:06:34;7.22;;;2.90;;
75785;SDS011;64402;44.708;37.644;2023-02-15T05:09:01;4.13;;;1.60;;
75785;SDS011;64402;44.708;37.644;2023-02-15T05:11:30;4.47;;;1.73;;
75785;SDS011;64402;44.708;37.644;2023-02-15T05:13:56;4.40;;;1.60;;
75785;SDS011;64402;44.708;37.644;2023-02-15T05:16:23;5.07;;;1.88;;
75785;SDS011;64402;44.708;37.644;2023-02-15T05:18:51;4.03;;;1.90;;
75785;SDS011;64402;44.708;37.644;2023-02-15T05:21:17;3.60;;;1.65;;
75785;SDS011;64402;44.708;37.644;2023-02-15T05:23:43;4.22;;;1.50;;
75785;SDS011;64402;44.708;37.644;2023-02-15T05:26:15;3.40;;;1.20;;
75785;SDS011;64402;44.708;37.644;2023-02-15T05:29:02;5.65;;;1.80;;
75785;SDS011;64402;44.708;37.644;2023-02-15T05:31:30;4.93;;;1.70;;
75785;SDS011;64402;44.708;37.644;2023-02-15T05:33:57;3.90;;;1.58;;
75785;SDS011;64402;44.708;37.644;2023-02-15T05:36:23;4.35;;;1.77;;
75785;SDS011;64402;44.708;37.644;2023-02-15T05:38:50;6.60;;;2.20;;
75785;SDS011;64402;44.708;37.644;2023-02-15T05:41:16;5.63;;;1.95;;
75785;SDS011;64402;44.708;37.644;2023-02-15T05:43:45;5.10;;;2.15;;
75785;SDS011;64402;44.708;37.644;2023-02-15T05:46:11;6.35;;;2.60;;
75785;SDS011;64402;44.708;37.644;2023-02-15T05:48:38;6.35;;;2.70;;
75785;SDS011;64402;44.708;37.644;2023-02-15T05:53:32;6.93;;;2.97;;
75785;SDS011;64402;44.708;37.644;2023-02-15T05:56:01;9.88;;;3.25;;
75785;SDS011;64402;44.708;37.644;2023-02-15T05:58:30;7.47;;;3.30;;
75785;SDS011;64402;44.708;37.644;2023-02-15T06:00:58;7.88;;;3.08;;
75785;SDS011;64402;44.708;37.644;2023-02-15T06:03:24;6.95;;;3.05;;
75785;SDS011;64402;44.708;37.644;2023-02-15T06:05:53;10.10;;;3.17;;
75785;SDS011;64402;44.708;37.644;2023-02-15T06:08:20;9.68;;;3.63;;
75785;SDS011;64402;44.708;37.644;2023-02-15T06:10:46;7.20;;;2.80;;
75785;SDS011;64402;44.708;37.644;2023-02-15T06:13:12;7.90;;;2.92;;
75785;SDS011;64402;44.708;37.644;2023-02-15T06:15:39;8.10;;;2.78;;
75785;SDS011;64402;44.708;37.644;2023-02-15T06:18:05;6.97;;;2.97;;
75785;SDS011;64402;44.708;37.644;2023-02-15T06:20:34;6.78;;;2.78;;
75785;SDS011;64402;44.708;37.644;2023-02-15T06:23:00;7.65;;;2.80;;
75785;SDS011;64402;44.708;37.644;2023-02-15T06:25:27;5.88;;;2.70;;
75785;SDS011;64402;44.708;37.644;2023-02-15T06:27:56;5.70;;;2.47;;
75785;SDS011;64402;44.708;37.644;2023-02-15T06:30:25;7.13;;;3.00;;
75785;SDS011;64402;44.708;37.644;2023-02-15T06:32:55;7.72;;;3.20;;
75785;SDS011;64402;44.708;37.644;2023-02-15T06:35:21;5.60;;;2.65;;
75785;SDS011;64402;44.708;37.644;2023-02-15T06:37:48;7.43;;;2.53;;
75785;SDS011;64402;44.708;37.644;2023-02-15T06:40:14;6.30;;;2.65;;
75785;SDS011;64402;44.708;37.644;2023-02-15T06:42:41;5.47;;;2.38;;
75785;SDS011;64402;44.708;37.644;2023-02-15T06:45:08;7.43;;;2.60;;
75785;SDS011;64402;44.708;37.644;2023-02-15T06:47:35;6.20;;;3.00;;
75785;SDS011;64402;44.708;37.644;2023-02-15T06:50:02;8.68;;;2.70;;
75785;SDS011;64402;44.708;37.644;2023-02-15T06:52:29;5.43;;;2.17;;
75785;SDS011;64402;44.708;37.644;2023-02-15T06:54:56;7.70;;;2.80;;
75785;SDS011;64402;44.708;37.644;2023-02-15T06:57:22;5.00;;;2.33;;
75785;SDS011;64402;44.708;37.644;2023-02-15T06:59:48;6.05;;;2.22;;
75785;SDS011;64402;44.708;37.644;2023-02-15T07:02:15;5.95;;;1.98;;
75785;SDS011;64402;44.708;37.644;2023-02-15T07:04:41;7.43;;;2.50;;
75785;SDS011;64402;44.708;37.644;2023-02-15T07:07:08;10.73;;;2.85;;
75785;SDS011;64402;44.708;37.644;2023-02-15T07:12:02;6.47;;;2.60;;
75785;SDS011;64402;44.708;37.644;2023-02-15T07:14:46;6.78;;;3.20;;
75785;SDS011;64402;44.708;37.644;2023-02-15T07:17:13;6.38;;;3.30;;
75785;SDS011;64402;44.708;37.644;2023-02-15T07:19:39;7.55;;;3.80;;
75785;SDS011;64402;44.708;37.644;2023-02-15T07:22:05;7.72;;;3.35;;
75785;SDS011;64402;44.708;37.644;2023-02-15T07:24:32;7.25;;;3.63;;
75785;SDS011;64402;44.708;37.644;2023-02-15T07:26:58;9.77;;;4.28;;
75785;SDS011;64402;44.708;37.644;2023-02-15T07:29:25;11.80;;;4.55;;
75785;SDS011;64402;44.708;37.644;2023-02-15T07:31:51;11.05;;;5.00;;
75785;SDS011;64402;44.708;37.644;2023-02-15T07:34:17;10.77;;;4.95;;
75785;SDS011;64402;44.708;37.644;2023-02-15T07:36:44;9.07;;;5.07;;
75785;SDS011;64402;44.708;37.644;2023-02-15T07:39:11;10.07;;;4.45;;
75785;SDS011;64402;44.708;37.644;2023-02-15T07:41:37;9.50;;;5.20;;
75785;SDS011;64402;44.708;37.644;2023-02-15T07:44:04;10.40;;;4.70;;
75785;SDS011;64402;44.708;37.644;2023-02-15T07:46:30;10.52;;;4.18;;
75785;SDS011;64402;44.708;37.644;2023-02-15T07:48:57;8.40;;;4.32;;
75785;SDS011;64402;44.708;37.644;2023-02-15T07:51:23;17.05;;;6.13;;
75785;SDS011;64402;44.708;37.644;2023-02-15T07:53:49;13.48;;;6.70;;
75785;SDS011;64402;44.708;37.644;2023-02-15T07:56:17;11.77;;;6.38;;
75785;SDS011;64402;44.708;37.644;2023-02-15T07:58:43;11.95;;;5.75;;
75785;SDS011;64402;44.708;37.644;2023-02-15T08:01:22;12.07;;;5.25;;
75785;SDS011;64402;44.708;37.644;2023-02-15T08:03:52;11.32;;;5.43;;
75785;SDS011;64402;44.708;37.644;2023-02-15T08:06:20;9.50;;;4.35;;
75785;SDS011;64402;44.708;37.644;2023-02-15T08:08:48;10.10;;;4.45;;
75785;SDS011;64402;44.708;37.644;2023-02-15T08:11:15;11.38;;;4.78;;
75785;SDS011;64402;44.708;37.644;2023-02-15T08:14:09;14.73;;;5.47;;
75785;SDS011;64402;44.708;37.644;2023-02-15T08:16:38;8.85;;;4.13;;
75785;SDS011;64402;44.708;37.644;2023-02-15T08:19:19;11.77;;;5.07;;
75785;SDS011;64402;44.708;37.644;2023-02-15T08:21:48;10.70;;;4.50;;
75785;SDS011;64402;44.708;37.644;2023-02-15T08:24:17;11.43;;;4.18;;
75785;SDS011;64402;44.708;37.644;2023-02-15T08:26:45;8.38;;;3.25;;
75785;SDS011;64402;44.708;37.644;2023-02-15T08:29:13;5.72;;;2.30;;
75785;SDS011;64402;44.708;37.644;2023-02-15T08:31:41;7.65;;;2.83;;
75785;SDS011;64402;44.708;37.644;2023-02-15T08:34:08;6.45;;;2.38;;
75785;SDS011;64402;44.708;37.644;2023-02-15T08:36:37;5.88;;;2.00;;
75785;SDS011;64402;44.708;37.644;2023-02-15T08:39:04;6.43;;;1.85;;
75785;SDS011;64402;44.708;37.644;2023-02-15T08:41:32;8.05;;;1.85;;
75785;SDS011;64402;44.708;37.644;2023-02-15T08:44:03;6.57;;;2.00;;
75785;SDS011;64402;44.708;37.644;2023-02-15T08:46:33;5.05;;;1.40;;
75785;SDS011;64402;44.708;37.644;2023-02-15T08:49:00;7.05;;;1.30;;
75785;SDS011;64402;44.708;37.644;2023-02-15T08:51:28;6.63;;;1.85;;
75785;SDS011;64402;44.708;37.644;2023-02-15T08:53:57;7.18;;;1.60;;
75785;SDS011;64402;44.708;37.644;2023-02-15T08:56:26;4.97;;;1.38;;
75785;SDS011;64402;44.708;37.644;2023-02-15T08:58:54;6.18;;;1.60;;
75785;SDS011;64402;44.708;37.644;2023-02-15T09:01:28;7.05;;;1.90;;
75785;SDS011;64402;44.708;37.644;2023-02-15T09:03:56;7.00;;;2.15;;
75785;SDS011;64402;44.708;37.644;2023-02-15T09:06:24;8.15;;;2.22;;
75785;SDS011;64402;44.708;37.644;2023-02-15T09:08:52;5.50;;;1.60;;
75785;SDS011;64402;44.708;37.644;2023-02-15T09:11:22;5.10;;;1.67;;
75785;SDS011;64402;44.708;37.644;2023-02-15T09:13:55;6.43;;;1.48;;
75785;SDS011;64402;44.708;37.644;2023-02-15T09:16:23;8.98;;;1.60;;
75785;SDS011;64402;44.708;37.644;2023-02-15T09:18:52;5.20;;;1.30;;
75785;SDS011;64402;44.708;37.644;2023-02-15T09:21:20;6.07;;;1.27;;
75785;SDS011;64402;44.708;37.644;2023-02-15T09:23:49;4.22;;;1.20;;
75785;SDS011;64402;44.708;37.644;2023-02-15T09:26:18;5.00;;;1.20;;
75785;SDS011;64402;44.708;37.644;2023-02-15T09:28:47;6.32;;;1.70;;
75785;SDS011;64402;44.708;37.644;2023-02-15T09:31:17;5.05;;;1.40;;
75785;SDS011;64402;44.708;37.644;2023-02-15T09:33:46;5.80;;;1.48;;
75785;SDS011;64402;44.708;37.644;2023-02-15T09:36:23;6.43;;;1.52;;
75785;SDS011;64402;44.708;37.644;2023-02-15T09:38:58;3.85;;;1.23;;
75785;SDS011;64402;44.708;37.644;2023-02-15T09:44:13;5.25;;;1.13;;
75785;SDS011;64402;44.708;37.644;2023-02-15T10:01:34;5.47;;;1.20;;
75785;SDS011;64402;44.708;37.644;2023-02-15T10:18:23;4.40;;;1.23;;
75785;SDS011;64402;44.708;37.644;2023-02-15T10:29:09;4.60;;;1.40;;
75785;SDS011;64402;44.708;37.644;2023-02-15T10:34:40;6.00;;;2.03;;
75785;SDS011;64402;44.708;37.644;2023-02-15T10:43:06;3.25;;;1.00;;
75785;SDS011;64402;44.708;37.644;2023-02-15T10:46:10;4.00;;;1.23;;
75785;SDS011;64402;44.708;37.644;2023-02-15T10:56:50;4.57;;;1.20;;
75785;SDS011;64402;44.708;37.644;2023-02-15T10:59:30;4.03;;;1.20;;
75785;SDS011;64402;44.708;37.644;2023-02-15T11:02:20;4.13;;;1.10;;
75785;SDS011;64402;44.708;37.644;2023-02-15T11:09:56;5.38;;;1.40;;
75785;SDS011;64402;44.708;37.644;2023-02-15T11:12:44;5.72;;;1.05;;
75785;SDS011;64402;44.708;37.644;2023-02-15T11:15:47;3.75;;;1.25;;
75785;SDS011;64402;44.708;37.644;2023-02-15T11:18:18;7.03;;;2.78;;
75785;SDS011;64402;44.708;37.644;2023-02-15T11:23:32;7.53;;;1.70;;
75785;SDS011;64402;44.708;37.644;2023-02-15T11:26:02;4.45;;;1.45;;
75785;SDS011;64402;44.708;37.644;2023-02-15T11:28:39;5.70;;;1.50;;
75785;SDS011;64402;44.708;37.644;2023-02-15T11:31:14;7.32;;;2.05;;
75785;SDS011;64402;44.708;37.644;2023-02-15T11:33:49;6.75;;;1.60;;
75785;SDS011;64402;44.708;37.644;2023-02-15T11:36:24;4.07;;;1.27;;
75785;SDS011;64402;44.708;37.644;2023-02-15T11:38:58;4.82;;;1.65;;
75785;SDS011;64402;44.708;37.644;2023-02-15T11:41:32;3.40;;;1.05;;
75785;SDS011;64402;44.708;37.644;2023-02-15T11:47:01;8.65;;;1.60;;
75785;SDS011;64402;44.708;37.644;2023-02-15T11:51:54;6.20;;;1.50;;
75785;SDS011;64402;44.708;37.644;2023-02-15T11:54:32;7.95;;;1.70;;
75785;SDS011;64402;44.708;37.644;2023-02-15T11:59:56;4.72;;;1.35;;
75785;SDS011;64402;44.708;37.644;2023-02-15T12:02:29;5.82;;;1.40;;
75785;SDS011;64402;44.708;37.644;2023-02-15T12:05:00;5.57;;;1.95;;
75785;SDS011;64402;44.708;37.644;2023-02-15T12:07:32;5.18;;;1.52;;
75785;SDS011;64402;44.708;37.644;2023-02-15T12:15:42;10.02;;;2.03;;
75785;SDS011;64402;44.708;37.644;2023-02-15T12:18:24;4.82;;;1.60;;
75785;SDS011;64402;44.708;37.644;2023-02-15T12:21:08;6.20;;;1.67;;
75785;SDS011;64402;44.708;37.644;2023-02-15T12:24:00;7.47;;;1.65;;
75785;SDS011;64402;44.708;37.644;2023-02-15T12:26:40;4.38;;;1.50;;
75785;SDS011;64402;44.708;37.644;2023-02-15T12:29:07;5.05;;;1.52;;
75785;SDS011;64402;44.708;37.644;2023-02-15T12:31:45;6.90;;;1.85;;
75785;SDS011;64402;44.708;37.644;2023-02-15T12:36:57;6.13;;;1.73;;
75785;SDS011;64402;44.708;37.644;2023-02-15T12:39:28;4.47;;;1.38;;
75785;SDS011;64402;44.708;37.644;2023-02-15T12:42:40;5.68;;;1.73;;
75785;SDS011;64402;44.708;37.644;2023-02-15T12:45:25;8.20;;;2.30;;
75785;SDS011;64402;44.708;37.644;2023-02-15T12:48:35;6.68;;;1.80;;
75785;SDS011;64402;44.708;37.644;2023-02-15T12:50:40;5.20;;;1.85;;
75785;SDS011;64402;44.708;37.644;2023-02-15T12:53:15;4.93;;;1.80;;
75785;SDS011;64402;44.708;37.644;2023-02-15T12:58:20;6.15;;;1.80;;
75785;SDS011;64402;44.708;37.644;2023-02-15T13:01:00;5.53;;;1.65;;
75785;SDS011;64402;44.708;37.644;2023-02-15T13:06:21;6.90;;;1.65;;
75785;SDS011;64402;44.708;37.644;2023-02-15T13:08:48;9.32;;;1.80;;
75785;SDS011;64402;44.708;37.644;2023-02-15T13:11:26;6.05;;;1.90;;
75785;SDS011;64402;44.708;37.644;2023-02-15T13:14:03;7.13;;;2.10;;
75785;SDS011;64402;44.708;37.644;2023-02-15T13:16:44;9.68;;;2.33;;
75785;SDS011;64402;44.708;37.644;2023-02-15T13:19:14;6.32;;;2.03;;
75785;SDS011;64402;44.708;37.644;2023-02-15T13:21:50;4.85;;;1.95;;
75785;SDS011;64402;44.708;37.644;2023-02-15T13:24:29;7.03;;;2.38;;
75785;SDS011;64402;44.708;37.644;2023-02-15T13:27:03;6.00;;;2.30;;
75785;SDS011;64402;44.708;37.644;2023-02-15T13:29:31;7.72;;;2.42;;
75785;SDS011;64402;44.708;37.644;2023-02-15T13:32:07;7.03;;;2.30;;
75785;SDS011;64402;44.708;37.644;2023-02-15T13:34:45;5.93;;;2.25;;
75785;SDS011;64402;44.708;37.644;2023-02-15T13:37:14;9.52;;;2.30;;
75785;SDS011;64402;44.708;37.644;2023-02-15T13:42:45;5.18;;;2.15;;
75785;SDS011;64402;44.708;37.644;2023-02-15T13:53:45;5.88;;;1.85;;
75785;SDS011;64402;44.708;37.644;2023-02-15T13:59:20;20.02;;;10.63;;
75785;SDS011;64402;44.708;37.644;2023-02-15T14:13:32;5.68;;;2.15;;
75785;SDS011;64402;44.708;37.644;2023-02-15T14:16:33;6.22;;;2.40;;
75785;SDS011;64402;44.708;37.644;2023-02-15T14:19:33;5.90;;;2.10;;
75785;SDS011;64402;44.708;37.644;2023-02-15T14:22:24;7.30;;;2.40;;
75785;SDS011;64402;44.708;37.644;2023-02-15T14:28:08;6.82;;;2.67;;
75785;SDS011;64402;44.708;37.644;2023-02-15T14:30:40;6.28;;;2.35;;
75785;SDS011;64402;44.708;37.644;2023-02-15T14:35:54;9.02;;;2.70;;
75785;SDS011;64402;44.708;37.644;2023-02-15T14:41:10;7.57;;;2.50;;
75785;SDS011;64402;44.708;37.644;2023-02-15T14:49:05;8.15;;;3.05;;
75785;SDS011;64402;44.708;37.644;2023-02-15T14:51:53;7.40;;;2.40;;
75785;SDS011;64402;44.708;37.644;2023-02-15T15:02:07;10.40;;;2.90;;
75785;SDS011;64402;44.708;37.644;2023-02-15T15:04:45;10.45;;;2.92;;
75785;SDS011;64402;44.708;37.644;2023-02-15T15:10:41;8.73;;;3.15;;
75785;SDS011;64402;44.708;37.644;2023-02-15T15:16:23;8.90;;;3.00;;
75785;SDS011;64402;44.708;37.644;2023-02-15T15:19:04;6.53;;;2.70;;
75785;SDS011;64402;44.708;37.644;2023-02-15T15:21:56;7.63;;;2.65;;
75785;SDS011;64402;44.708;37.644;2023-02-15T15:35:21;6.68;;;2.58;;
75785;SDS011;64402;44.708;37.644;2023-02-15T15:49:54;7.25;;;2.55;;
75785;SDS011;64402;44.708;37.644;2023-02-15T15:52:23;7.30;;;2.70;;
75785;SDS011;64402;44.708;37.644;2023-02-15T15:54:53;9.27;;;2.90;;
75785;SDS011;64402;44.708;37.644;2023-02-15T15:57:27;7.47;;;2.65;;
75785;SDS011;64402;44.708;37.644;2023-02-15T15:59:56;10.63;;;3.00;;
75785;SDS011;64402;44.708;37.644;2023-02-15T16:02:26;8.65;;;2.92;;
75785;SDS011;64402;44.708;37.644;2023-02-15T16:04:53;7.68;;;3.03;;
75785;SDS011;64402;44.708;37.644;2023-02-15T16:09:56;8.73;;;2.40;;
75785;SDS011;64402;44.708;37.644;2023-02-15T16:12:24;9.13;;;2.60;;
75785;SDS011;64402;44.708;37.644;2023-02-15T16:14:54;7.45;;;2.25;;
75785;SDS011;64402;44.708;37.644;2023-02-15T16:20:58;7.28;;;2.67;;
75785;SDS011;64402;44.708;37.644;2023-02-15T16:23:12;7.93;;;2.90;;
75785;SDS011;64402;44.708;37.644;2023-02-15T16:28:39;7.07;;;2.53;;
75785;SDS011;64402;44.708;37.644;2023-02-15T16:33:40;8.02;;;2.60;;
75785;SDS011;64402;44.708;37.644;2023-02-15T16:41:16;11.88;;;3.42;;
75785;SDS011;64402;44.708;37.644;2023-02-15T16:43:48;8.95;;;2.40;;
75785;SDS011;64402;44.708;37.644;2023-02-15T16:46:26;12.05;;;3.15;;
75785;SDS011;64402;44.708;37.644;2023-02-15T16:53:19;7.05;;;2.35;;
75785;SDS011;64402;44.708;37.644;2023-02-15T16:55:50;5.60;;;2.55;;
75785;SDS011;64402;44.708;37.644;2023-02-15T16:58:21;8.38;;;2.70;;
75785;SDS011;64402;44.708;37.644;2023-02-15T17:00:55;8.05;;;2.88;;
75785;SDS011;64402;44.708;37.644;2023-02-15T17:03:24;7.82;;;2.53;;
75785;SDS011;64402;44.708;37.644;2023-02-15T17:05:53;8.48;;;2.97;;
75785;SDS011;64402;44.708;37.644;2023-02-15T17:13:24;8.25;;;2.90;;
75785;SDS011;64402;44.708;37.644;2023-02-15T17:18:29;6.65;;;2.80;;
75785;SDS011;64402;44.708;37.644;2023-02-15T17:20:57;8.30;;;2.90;;
75785;SDS011;64402;44.708;37.644;2023-02-15T17:23:32;7.72;;;2.90;;
75785;SDS011;64402;44.708;37.644;2023-02-15T17:28:37;8.52;;;2.83;;
75785;SDS011;64402;44.708;37.644;2023-02-15T17:31:16;7.35;;;2.97;;
75785;SDS011;64402;44.708;37.644;2023-02-15T17:33:44;10.32;;;2.97;;
75785;SDS011;64402;44.708;37.644;2023-02-15T17:36:12;7.97;;;2.75;;
75785;SDS011;64402;44.708;37.644;2023-02-15T17:39:06;7.03;;;2.55;;
75785;SDS011;64402;44.708;37.644;2023-02-15T17:41:44;8.43;;;2.63;;
75785;SDS011;64402;44.708;37.644;2023-02-15T17:44:10;6.28;;;2.50;;
75785;SDS011;64402;44.708;37.644;2023-02-15T17:46:40;8.00;;;2.40;;
75785;SDS011;64402;44.708;37.644;2023-02-15T17:49:18;7.18;;;2.60;;
75785;SDS011;64402;44.708;37.644;2023-02-15T17:51:52;10.10;;;2.78;;
75785;SDS011;64402;44.708;37.644;2023-02-15T17:54:18;6.78;;;2.75;;
75785;SDS011;64402;44.708;37.644;2023-02-15T17:57:08;9.02;;;2.90;;
75785;SDS011;64402;44.708;37.644;2023-02-15T17:59:38;9.52;;;3.55;;
75785;SDS011;64402;44.708;37.644;2023-02-15T18:02:23;8.00;;;2.90;;
75785;SDS011;64402;44.708;37.644;2023-02-15T18:05:14;8.45;;;3.22;;
75785;SDS011;64402;44.708;37.644;2023-02-15T18:07:59;6.97;;;2.60;;
75785;SDS011;64402;44.708;37.644;2023-02-15T18:10:44;9.13;;;2.88;;
75785;SDS011;64402;44.708;37.644;2023-02-15T18:13:29;7.38;;;2.70;;
75785;SDS011;64402;44.708;37.644;2023-02-15T18:15:55;6.50;;;2.50;;
75785;SDS011;64402;44.708;37.644;2023-02-15T18:18:22;6.30;;;2.30;;
75785;SDS011;64402;44.708;37.644;2023-02-15T18:20:49;6.47;;;2.13;;
75785;SDS011;64402;44.708;37.644;2023-02-15T18:23:15;7.88;;;2.63;;
75785;SDS011;64402;44.708;37.644;2023-02-15T18:25:42;8.30;;;2.30;;
75785;SDS011;64402;44.708;37.644;2023-02-15T18:28:08;7.28;;;2.50;;
75785;SDS011;64402;44.708;37.644;2023-02-15T18:30:35;6.60;;;2.30;;
75785;SDS011;64402;44.708;37.644;2023-02-15T18:33:05;7.78;;;2.10;;
75785;SDS011;64402;44.708;37.644;2023-02-15T18:35:32;5.50;;;1.92;;
75785;SDS011;64402;44.708;37.644;2023-02-15T18:37:58;7.43;;;2.38;;
75785;SDS011;64402;44.708;37.644;2023-02-15T18:40:26;5.72;;;1.50;;
75785;SDS011;64402;44.708;37.644;2023-02-15T18:42:54;6.22;;;1.90;;
75785;SDS011;64402;44.708;37.644;2023-02-15T18:45:23;4.65;;;1.42;;
75785;SDS011;64402;44.708;37.644;2023-02-15T18:47:53;4.40;;;1.58;;